createdAt,value
2018-11-01T00:01:05.477Z,10.70
2018-11-01T00:03:34.068Z,10.70
2018-11-01T00:06:02.396Z,10.60
2018-11-01T00:08:30.740Z,10.60
2018-11-01T00:10:59.001Z,10.50
2018-11-01T00:13:27.269Z,10.40
2018-11-01T00:15:55.563Z,10.40
2018-11-01T00:18:23.888Z,10.40
2018-11-01T00:20:52.136Z,10.40
2018-11-01T00:23:20.432Z,10.30
2018-11-01T00:25:48.679Z,10.30
2018-11-01T00:28:16.935Z,10.30
2018-11-01T00:30:45.208Z,10.20
2018-11-01T00:33:13.489Z,10.30
2018-11-01T00:35:41.768Z,10.20
2018-11-01T00:38:10.035Z,10.20
2018-11-01T00:40:38.282Z,10.20
2018-11-01T00:43:06.744Z,10.20
2018-11-01T00:45:34.997Z,10.20
2018-11-01T00:48:03.264Z,10.20
2018-11-01T00:50:31.502Z,10.30
2018-11-01T00:52:59.951Z,10.30
2018-11-01T00:55:28.236Z,10.30
2018-11-01T00:57:56.536Z,10.40
2018-11-01T01:00:24.832Z,10.40
2018-11-01T01:02:53.109Z,10.50
2018-11-01T01:05:21.344Z,10.40
2018-11-01T01:07:49.641Z,10.40
2018-11-01T01:10:18.536Z,10.40
2018-11-01T01:12:47.825Z,10.40
2018-11-01T01:15:16.074Z,10.40
2018-11-01T01:17:44.335Z,10.40
2018-11-01T01:20:13.697Z,10.40
2018-11-01T01:22:42.988Z,10.30
2018-11-01T01:25:13.000Z,10.20
2018-11-01T01:27:41.348Z,10.30
2018-11-01T01:30:13.273Z,10.30
2018-11-01T01:32:42.436Z,10.30
2018-11-01T01:35:11.625Z,10.30
2018-11-01T01:37:39.941Z,10.30
2018-11-01T01:40:09.004Z,10.30
2018-11-01T01:42:38.323Z,10.30
2018-11-01T01:45:08.017Z,10.30
2018-11-01T01:47:36.940Z,10.30
2018-11-01T01:50:07.740Z,10.30
2018-11-01T01:52:36.129Z,10.40
2018-11-01T01:55:04.801Z,10.40
2018-11-01T01:57:33.075Z,10.40
2018-11-01T02:00:01.420Z,10.40
2018-11-01T02:02:29.686Z,10.40
2018-11-01T02:04:58.124Z,10.50
2018-11-01T02:07:26.417Z,10.50
2018-11-01T02:09:54.704Z,10.50
2018-11-01T02:12:23.006Z,10.50
2018-11-01T02:14:51.248Z,10.50
2018-11-01T02:17:19.501Z,10.60
2018-11-01T02:19:47.840Z,10.60
2018-11-01T02:22:16.124Z,10.50
2018-11-01T02:24:44.416Z,10.50
2018-11-01T02:27:12.682Z,10.50
2018-11-01T02:29:41.176Z,10.50
2018-11-01T02:32:09.560Z,10.50
2018-11-01T02:34:37.859Z,10.50
2018-11-01T02:37:06.129Z,10.50
2018-11-01T02:39:34.408Z,10.40
2018-11-01T02:42:02.669Z,10.50
2018-11-01T02:44:30.947Z,10.40
2018-11-01T02:46:59.209Z,10.40
2018-11-01T02:49:27.456Z,10.40
2018-11-01T02:51:55.703Z,10.50
2018-11-01T02:54:23.960Z,10.40
2018-11-01T02:56:52.199Z,10.40
2018-11-01T02:59:20.444Z,10.30
2018-11-01T03:01:48.698Z,10.30
2018-11-01T03:04:16.958Z,10.20
2018-11-01T03:06:45.222Z,10.20
2018-11-01T03:09:13.687Z,10.10
2018-11-01T03:11:41.966Z,10.00
2018-11-01T03:14:10.196Z,9.90
2018-11-01T03:16:38.458Z,9.80
2018-11-01T03:19:06.908Z,9.80
2018-11-01T03:21:35.227Z,9.70
2018-11-01T03:24:04.348Z,9.60
2018-11-01T03:26:32.702Z,9.50
2018-11-01T03:29:01.020Z,9.50
2018-11-01T03:31:29.265Z,9.50
2018-11-01T03:33:57.513Z,9.50
2018-11-01T03:36:26.774Z,9.40
2018-11-01T03:38:55.047Z,9.40
2018-11-01T03:41:23.300Z,9.30
2018-11-01T03:43:51.560Z,9.30
2018-11-01T03:46:19.834Z,9.20
2018-11-01T03:48:48.084Z,9.20
2018-11-01T03:51:16.330Z,9.10
2018-11-01T03:53:44.658Z,9.10
2018-11-01T03:56:12.848Z,9.10
2018-11-01T03:58:41.077Z,9.10
2018-11-01T04:01:09.324Z,9.00
2018-11-01T04:03:37.634Z,8.90
2018-11-01T04:06:06.438Z,8.90
2018-11-01T04:08:34.748Z,8.90
2018-11-01T04:11:03.017Z,8.80
2018-11-01T04:13:31.368Z,8.80
2018-11-01T04:15:59.673Z,8.80
2018-11-01T04:18:28.020Z,8.80
2018-11-01T04:20:56.300Z,8.80
2018-11-01T04:23:24.607Z,8.80
2018-11-01T04:25:52.784Z,8.80
2018-11-01T04:28:21.047Z,8.80
2018-11-01T04:30:49.321Z,8.80
2018-11-01T04:33:17.683Z,8.80
2018-11-01T04:35:45.893Z,8.80
2018-11-01T04:38:14.132Z,8.80
2018-11-01T04:40:43.115Z,8.80
2018-11-01T04:43:11.369Z,8.80
2018-11-01T04:45:39.600Z,8.80
2018-11-01T04:48:07.917Z,8.80
2018-11-01T04:50:36.193Z,8.80
2018-11-01T04:53:04.553Z,8.80
2018-11-01T04:55:32.831Z,8.80
2018-11-01T04:58:01.228Z,8.80
2018-11-01T05:00:29.513Z,8.80
2018-11-01T05:02:57.808Z,8.80
2018-11-01T05:05:26.913Z,8.80
2018-11-01T05:07:55.144Z,8.70
2018-11-01T05:10:23.399Z,8.70
2018-11-01T05:12:51.798Z,8.70
2018-11-01T05:15:20.061Z,8.80
2018-11-01T05:17:48.335Z,8.80
2018-11-01T05:20:16.717Z,8.80
2018-11-01T05:22:44.929Z,8.80
2018-11-01T05:25:13.193Z,8.70
2018-11-01T05:27:41.718Z,8.70
2018-11-01T05:30:11.520Z,8.70
2018-11-01T05:32:39.932Z,8.60
2018-11-01T05:35:08.692Z,8.60
2018-11-01T05:37:36.998Z,8.60
2018-11-01T05:40:06.934Z,8.50
2018-11-01T05:42:35.197Z,8.50
2018-11-01T05:45:03.536Z,8.40
2018-11-01T05:47:32.636Z,8.40
2018-11-01T05:50:01.331Z,8.30
2018-11-01T05:52:29.718Z,8.20
2018-11-01T05:54:58.057Z,8.20
2018-11-01T05:57:26.350Z,8.10
2018-11-01T05:59:54.760Z,8.00
2018-11-01T06:02:29.260Z,8.00
2018-11-01T06:04:57.636Z,7.90
2018-11-01T06:08:28.864Z,7.90
2018-11-01T06:10:57.689Z,7.90
2018-11-01T06:13:25.933Z,7.70
2018-11-01T06:15:54.176Z,7.70
2018-11-01T06:18:22.424Z,7.60
2018-11-01T06:20:50.688Z,7.50
2018-11-01T06:23:18.964Z,7.50
2018-11-01T06:25:47.241Z,7.50
2018-11-01T06:28:15.558Z,7.50
2018-11-01T06:30:43.793Z,7.50
2018-11-01T06:33:12.044Z,7.40
2018-11-01T06:35:42.733Z,7.40
2018-11-01T06:38:10.987Z,7.40
2018-11-01T06:40:39.208Z,7.40
2018-11-01T06:43:07.464Z,7.30
2018-11-01T06:45:36.640Z,7.20
2018-11-01T06:48:05.301Z,7.20
2018-11-01T06:50:34.204Z,7.10
2018-11-01T06:53:02.540Z,7.10
2018-11-01T06:55:30.792Z,7.10
2018-11-01T06:57:59.022Z,7.10
2018-11-01T07:00:27.284Z,7.20
2018-11-01T07:02:55.556Z,7.20
2018-11-01T07:05:23.812Z,7.20
2018-11-01T07:07:52.086Z,7.20
2018-11-01T07:10:20.364Z,7.20
2018-11-01T07:12:48.628Z,7.30
2018-11-01T07:15:17.172Z,7.30
2018-11-01T07:17:45.506Z,7.30
2018-11-01T07:20:14.740Z,7.30
2018-11-01T07:22:43.656Z,7.30
2018-11-01T07:25:13.260Z,7.30
2018-11-01T07:27:41.642Z,7.40
2018-11-01T07:30:12.318Z,7.40
2018-11-01T07:32:40.625Z,7.50
2018-11-01T07:35:10.076Z,7.50
2018-11-01T07:37:39.328Z,7.50
2018-11-01T07:40:09.344Z,7.60
2018-11-01T07:42:37.701Z,7.70
2018-11-01T07:45:06.398Z,7.80
2018-11-01T07:47:35.632Z,7.90
2018-11-01T07:50:03.980Z,8.00
2018-11-01T07:52:32.289Z,8.10
2018-11-01T07:55:00.617Z,8.20
2018-11-01T07:57:29.416Z,8.30
2018-11-01T07:59:57.673Z,8.40
2018-11-01T08:02:25.928Z,8.50
2018-11-01T08:04:54.191Z,8.60
2018-11-01T08:07:22.461Z,8.70
2018-11-01T08:09:50.697Z,8.80
2018-11-01T08:12:19.868Z,8.90
2018-11-01T08:14:48.112Z,8.90
2018-11-01T08:17:16.374Z,9.00
2018-11-01T08:19:44.702Z,9.00
2018-11-01T08:22:12.981Z,9.10
2018-11-01T08:24:41.229Z,9.20
2018-11-01T08:27:09.516Z,9.30
2018-11-01T08:29:37.804Z,9.30
2018-11-01T08:32:06.384Z,9.40
2018-11-01T08:34:34.690Z,9.50
2018-11-01T08:37:03.016Z,9.60
2018-11-01T08:39:31.511Z,9.70
2018-11-01T08:42:00.268Z,9.80
2018-11-01T08:44:28.561Z,9.90
2018-11-01T08:46:56.926Z,10.00
2018-11-01T08:49:25.219Z,10.10
2018-11-01T08:51:53.546Z,10.20
2018-11-01T08:54:21.803Z,10.40
2018-11-01T08:56:50.120Z,10.50
2018-11-01T08:59:18.377Z,10.50
2018-11-01T09:01:46.669Z,10.60
2018-11-01T09:04:15.030Z,10.80
2018-11-01T09:06:43.276Z,10.90
2018-11-01T09:09:11.545Z,11.10
2018-11-01T09:11:39.813Z,11.20
2018-11-01T09:14:08.145Z,11.40
2018-11-01T09:16:36.651Z,11.50
2018-11-01T09:19:05.814Z,11.70
2018-11-01T09:21:34.049Z,11.80
2018-11-01T09:24:02.492Z,11.90
2018-11-01T09:26:30.800Z,11.90
2018-11-01T09:28:59.081Z,12.00
2018-11-01T09:31:27.356Z,12.10
2018-11-01T09:33:55.624Z,12.20
2018-11-01T09:36:23.888Z,12.20
2018-11-01T09:38:52.194Z,12.30
2018-11-01T09:41:20.455Z,12.30
2018-11-01T09:43:48.731Z,12.30
2018-11-01T09:46:17.214Z,12.40
2018-11-01T09:48:45.429Z,12.50
2018-11-01T09:51:13.673Z,12.60
2018-11-01T09:53:41.930Z,12.60
2018-11-01T09:56:10.290Z,12.70
2018-11-01T09:58:38.684Z,12.80
2018-11-01T10:01:06.972Z,12.80
2018-11-01T10:03:35.228Z,12.80
2018-11-01T10:06:03.588Z,12.90
2018-11-01T10:08:31.800Z,12.80
2018-11-01T10:11:00.136Z,12.80
2018-11-01T10:13:28.481Z,12.90
2018-11-01T10:15:56.927Z,13.00
2018-11-01T10:18:26.006Z,13.00
2018-11-01T10:20:54.181Z,13.10
2018-11-01T10:23:22.472Z,12.90
2018-11-01T10:25:50.908Z,13.00
2018-11-01T10:28:19.185Z,13.00
2018-11-01T10:30:47.490Z,13.10
2018-11-01T10:33:15.811Z,13.10
2018-11-01T10:35:44.127Z,13.10
2018-11-01T10:38:12.425Z,13.10
2018-11-01T10:40:41.645Z,13.00
2018-11-01T10:43:09.986Z,13.00
2018-11-01T10:45:38.300Z,13.10
2018-11-01T10:48:06.580Z,13.10
2018-11-01T10:50:34.901Z,13.20
2018-11-01T10:53:03.229Z,13.20
2018-11-01T10:55:31.540Z,13.20
2018-11-01T10:57:59.832Z,13.30
2018-11-01T11:00:33.690Z,13.30
2018-11-01T11:03:01.964Z,13.40
2018-11-01T11:05:30.300Z,13.30
2018-11-01T11:07:58.620Z,13.30
2018-11-01T11:10:26.913Z,13.30
2018-11-01T11:12:55.204Z,13.30
2018-11-01T11:15:23.479Z,13.40
2018-11-01T11:17:51.765Z,13.50
2018-11-01T11:20:20.202Z,13.50
2018-11-01T11:22:48.433Z,13.50
2018-11-01T11:25:16.712Z,13.50
2018-11-01T11:27:45.038Z,13.30
2018-11-01T11:30:13.825Z,13.50
2018-11-01T11:32:42.091Z,13.50
2018-11-01T11:35:11.124Z,13.50
2018-11-01T11:37:39.411Z,13.50
2018-11-01T11:40:09.175Z,13.50
2018-11-01T11:42:37.514Z,13.40
2018-11-01T11:45:06.536Z,13.20
2018-11-01T11:47:34.825Z,13.20
2018-11-01T11:50:03.233Z,13.30
2018-11-01T11:52:31.557Z,13.30
2018-11-01T11:54:59.826Z,13.30
2018-11-01T11:57:28.173Z,13.30
2018-11-01T11:59:56.474Z,13.30
2018-11-01T12:02:24.828Z,13.20
2018-11-01T12:04:53.189Z,13.30
2018-11-01T12:07:21.436Z,13.30
2018-11-01T12:09:49.742Z,13.40
2018-11-01T12:12:18.038Z,13.40
2018-11-01T12:14:46.326Z,13.50
2018-11-01T12:17:14.653Z,13.50
2018-11-01T12:19:42.903Z,13.60
2018-11-01T12:22:11.144Z,13.60
2018-11-01T12:24:39.409Z,13.60
2018-11-01T12:27:07.656Z,13.70
2018-11-01T12:29:35.923Z,13.70
2018-11-01T12:32:04.329Z,13.70
2018-11-01T12:34:32.592Z,13.60
2018-11-01T12:37:00.873Z,13.60
2018-11-01T12:39:29.136Z,13.60
2018-11-01T12:41:57.387Z,13.50
2018-11-01T12:44:25.656Z,13.50
2018-11-01T12:46:53.929Z,13.50
2018-11-01T12:49:22.253Z,13.50
2018-11-01T12:51:50.526Z,13.40
2018-11-01T12:54:18.788Z,13.40
2018-11-01T12:56:47.053Z,13.40
2018-11-01T12:59:15.321Z,13.30
2018-11-01T13:01:43.608Z,13.10
2018-11-01T13:04:11.859Z,12.90
2018-11-01T13:06:40.124Z,13.00
2018-11-01T13:09:10.608Z,12.90
2018-11-01T13:11:38.850Z,12.90
2018-11-01T13:14:07.097Z,12.90
2018-11-01T13:16:35.365Z,12.80
2018-11-01T13:19:03.673Z,12.70
2018-11-01T13:21:31.948Z,12.70
2018-11-01T13:24:00.257Z,12.70
2018-11-01T13:26:28.576Z,12.70
2018-11-01T13:28:57.330Z,12.70
2018-11-01T13:31:25.659Z,12.50
2018-11-01T13:33:53.924Z,12.60
2018-11-01T13:36:22.189Z,12.50
2018-11-01T13:38:50.495Z,12.60
2018-11-01T13:41:18.963Z,12.60
2018-11-01T13:43:47.100Z,12.60
2018-11-01T13:46:15.378Z,12.60
2018-11-01T13:48:43.625Z,12.60
2018-11-01T13:51:11.896Z,12.60
2018-11-01T13:53:40.187Z,12.60
2018-11-01T13:56:08.435Z,12.60
2018-11-01T13:58:37.061Z,12.60
2018-11-01T14:01:05.865Z,12.50
2018-11-01T14:03:34.125Z,12.50
2018-11-01T14:06:02.515Z,12.50
2018-11-01T14:08:30.766Z,12.50
2018-11-01T14:10:59.016Z,12.30
2018-11-01T14:13:27.449Z,12.30
2018-11-01T14:15:55.612Z,12.20
2018-11-01T14:18:23.864Z,12.20
2018-11-01T14:20:52.157Z,12.10
2018-11-01T14:23:20.417Z,12.10
2018-11-01T14:25:48.680Z,12.10
2018-11-01T14:28:17.795Z,12.10
2018-11-01T14:30:46.144Z,12.10
2018-11-01T14:33:14.413Z,12.10
2018-11-01T14:35:42.676Z,12.10
2018-11-01T14:38:10.957Z,12.10
2018-11-01T14:40:39.433Z,12.10
2018-11-01T14:43:07.793Z,12.10
2018-11-01T14:45:36.318Z,12.10
2018-11-01T14:48:04.589Z,12.10
2018-11-01T14:50:32.956Z,12.10
2018-11-01T14:53:02.411Z,12.10
2018-11-01T14:55:31.149Z,12.10
2018-11-01T14:58:00.504Z,12.10
2018-11-01T15:00:27.124Z,12.00
2018-11-01T15:02:57.321Z,12.00
2018-11-01T15:05:25.572Z,12.00
2018-11-01T15:07:54.481Z,12.00
2018-11-01T15:10:22.748Z,11.90
2018-11-01T15:12:51.171Z,11.90
2018-11-01T15:15:19.397Z,11.80
2018-11-01T15:17:47.793Z,11.70
2018-11-01T15:20:16.068Z,11.70
2018-11-01T15:22:44.337Z,11.70
2018-11-01T15:25:12.611Z,11.70
2018-11-01T15:27:40.868Z,11.70
2018-11-01T15:30:11.119Z,11.60
2018-11-01T15:32:39.368Z,11.70
2018-11-01T15:35:07.768Z,11.60
2018-11-01T15:37:36.235Z,11.50
2018-11-01T15:40:06.306Z,11.50
2018-11-01T15:42:34.414Z,11.50
2018-11-01T15:45:02.825Z,11.50
2018-11-01T15:47:31.149Z,11.50
2018-11-01T15:49:59.472Z,11.40
2018-11-01T15:52:27.760Z,11.40
2018-11-01T15:54:56.036Z,11.30
2018-11-01T15:57:24.340Z,11.20
2018-11-01T15:59:52.615Z,11.20
2018-11-01T16:02:20.911Z,11.20
2018-11-01T16:04:49.190Z,11.10
2018-11-01T16:07:17.541Z,10.90
2018-11-01T16:09:45.847Z,10.90
2018-11-01T16:12:14.184Z,10.80
2018-11-01T16:14:42.487Z,10.80
2018-11-01T16:17:10.814Z,10.80
2018-11-01T16:22:30.838Z,10.70
2018-11-01T16:24:59.258Z,10.80
2018-11-01T16:27:27.560Z,10.70
2018-11-01T16:29:55.855Z,10.60
2018-11-01T16:32:24.124Z,10.60
2018-11-01T16:34:52.446Z,10.50
2018-11-01T16:37:20.814Z,10.50
2018-11-01T16:39:49.047Z,10.50
2018-11-01T16:42:17.406Z,10.60
2018-11-01T16:44:45.635Z,10.60
2018-11-01T16:47:13.942Z,10.60
2018-11-01T16:49:42.216Z,10.70
2018-11-01T16:52:10.512Z,10.70
2018-11-01T16:54:38.747Z,10.70
2018-11-01T16:57:07.017Z,10.70
2018-11-01T16:59:35.312Z,10.70
2018-11-01T17:02:03.647Z,10.70
2018-11-01T17:04:31.889Z,10.80
2018-11-01T17:07:00.164Z,10.80
2018-11-01T17:09:28.453Z,10.90
2018-11-01T17:11:56.776Z,10.80
2018-11-01T17:14:25.039Z,10.80
2018-11-01T17:16:53.323Z,10.80
2018-11-01T17:19:21.583Z,10.80
2018-11-01T17:21:49.844Z,10.80
2018-11-01T17:24:18.123Z,10.80
2018-11-01T17:26:46.399Z,10.80
2018-11-01T17:29:14.680Z,10.90
2018-11-01T17:31:42.956Z,10.90
2018-11-01T17:34:11.294Z,10.90
2018-11-01T17:36:39.577Z,10.90
2018-11-01T17:39:08.781Z,11.00
2018-11-01T17:41:37.044Z,11.00
2018-11-01T17:44:05.379Z,11.00
2018-11-01T17:46:33.616Z,11.00
2018-11-01T17:49:01.947Z,11.00
2018-11-01T17:51:30.438Z,11.00
2018-11-01T17:53:58.609Z,11.00
2018-11-01T17:56:26.886Z,11.00
2018-11-01T17:58:55.162Z,11.00
2018-11-01T18:01:23.421Z,11.00
2018-11-01T18:03:51.675Z,11.00
2018-11-01T18:06:20.056Z,11.00
2018-11-01T18:08:48.342Z,10.90
2018-11-01T18:11:16.599Z,11.00
2018-11-01T18:13:44.860Z,11.00
2018-11-01T18:16:13.109Z,11.00
2018-11-01T18:18:41.385Z,11.00
2018-11-01T18:21:09.668Z,11.00
2018-11-01T18:23:37.916Z,11.00
2018-11-01T18:26:06.268Z,11.00
2018-11-01T18:28:35.373Z,11.00
2018-11-01T18:31:03.887Z,11.00
2018-11-01T18:33:32.149Z,11.00
2018-11-01T18:36:00.412Z,11.00
2018-11-01T18:38:28.773Z,11.00
2018-11-01T18:40:57.079Z,11.00
2018-11-01T18:43:25.332Z,11.00
2018-11-01T18:45:53.661Z,10.90
2018-11-01T18:48:21.977Z,10.80
2018-11-01T18:50:50.691Z,10.80
2018-11-01T18:53:18.960Z,10.80
2018-11-01T18:55:47.272Z,10.70
2018-11-01T18:58:15.551Z,10.70
2018-11-01T19:00:43.970Z,10.60
2018-11-01T19:03:12.164Z,10.60
2018-11-01T19:05:40.467Z,10.60
2018-11-01T19:08:08.771Z,10.50
2018-11-01T19:10:37.049Z,10.50
2018-11-01T19:13:05.390Z,10.50
2018-11-01T19:15:33.653Z,10.50
2018-11-01T19:18:01.956Z,10.50
2018-11-01T19:20:30.224Z,10.40
2018-11-01T19:22:58.576Z,10.50
2018-11-01T19:25:26.914Z,10.40
2018-11-01T19:27:55.259Z,10.40
2018-11-01T19:30:23.409Z,10.30
2018-11-01T19:32:51.714Z,10.40
2018-11-01T19:35:19.984Z,10.40
2018-11-01T19:37:48.260Z,10.30
2018-11-01T19:40:16.717Z,10.30
2018-11-01T19:42:45.226Z,10.40
2018-11-01T19:45:13.515Z,10.40
2018-11-01T19:47:41.865Z,10.30
2018-11-01T19:50:12.194Z,10.30
2018-11-01T19:52:40.467Z,10.40
2018-11-01T19:55:08.781Z,10.40
2018-11-01T19:57:37.040Z,10.40
2018-11-01T20:00:07.264Z,10.40
2018-11-01T20:02:35.704Z,10.40
2018-11-01T20:05:03.885Z,10.40
2018-11-01T20:07:32.197Z,10.50
2018-11-01T20:10:00.593Z,10.50
2018-11-01T20:12:28.924Z,10.50
2018-11-01T20:14:57.419Z,10.50
2018-11-01T20:17:25.492Z,10.50
2018-11-01T20:19:53.801Z,10.50
2018-11-01T20:22:22.089Z,10.50
2018-11-01T20:24:50.398Z,10.50
2018-11-01T20:27:18.711Z,10.50
2018-11-01T20:29:47.001Z,10.40
2018-11-01T20:32:15.322Z,10.40
2018-11-01T20:34:43.614Z,10.40
2018-11-01T20:37:11.975Z,10.40
2018-11-01T20:39:40.202Z,10.40
2018-11-01T20:42:08.484Z,10.40
2018-11-01T20:44:36.744Z,10.40
2018-11-01T20:47:05.073Z,10.30
2018-11-01T20:49:33.338Z,10.40
2018-11-01T20:52:01.652Z,10.40
2018-11-01T20:54:29.929Z,10.40
2018-11-01T20:56:58.205Z,10.40
2018-11-01T20:59:27.388Z,10.20
2018-11-01T21:01:55.677Z,10.20
2018-11-01T21:04:23.952Z,10.20
2018-11-01T21:06:52.260Z,10.20
2018-11-01T21:09:20.510Z,10.20
2018-11-01T21:11:49.046Z,10.20
2018-11-01T21:14:17.156Z,10.20
2018-11-01T21:16:45.476Z,10.30
2018-11-01T21:19:13.855Z,10.30
2018-11-01T21:21:42.101Z,10.30
2018-11-01T21:24:10.392Z,10.30
2018-11-01T21:26:38.668Z,10.30
2018-11-01T21:29:07.084Z,10.30
2018-11-01T21:31:35.296Z,10.30
2018-11-01T21:34:03.748Z,10.40
2018-11-01T21:36:32.020Z,10.40
2018-11-01T21:41:51.442Z,10.40
2018-11-01T21:44:19.752Z,10.40
2018-11-01T21:46:48.055Z,10.40
2018-11-01T21:49:16.359Z,10.40
2018-11-01T21:51:44.675Z,10.40
2018-11-01T21:54:13.006Z,10.30
2018-11-01T21:56:41.472Z,10.30
2018-11-01T21:59:09.732Z,10.40
2018-11-01T22:01:38.034Z,10.40
2018-11-01T22:04:06.303Z,10.40
2018-11-01T22:06:34.566Z,10.30
2018-11-01T22:09:03.826Z,10.30
2018-11-01T22:11:32.260Z,10.30
2018-11-01T22:14:00.570Z,10.30
2018-11-01T22:16:28.907Z,10.20
2018-11-01T22:18:57.165Z,10.20
2018-11-01T22:21:25.460Z,10.20
2018-11-01T22:23:53.855Z,10.20
2018-11-01T22:26:22.251Z,10.10
2018-11-01T22:28:50.636Z,10.10
2018-11-01T22:31:18.916Z,10.10
2018-11-01T22:33:47.240Z,10.20
2018-11-01T22:36:15.629Z,10.10
2018-11-01T22:38:44.338Z,10.20
2018-11-01T22:41:12.624Z,10.10
2018-11-01T22:43:40.884Z,10.20
2018-11-01T22:46:09.141Z,10.20
2018-11-01T22:48:37.471Z,10.20
2018-11-01T22:51:06.278Z,10.20
2018-11-01T22:53:34.665Z,10.30
2018-11-01T22:56:03.048Z,10.30
2018-11-01T22:58:31.366Z,10.30
2018-11-01T23:00:59.657Z,10.40
2018-11-01T23:03:28.001Z,10.40
2018-11-01T23:05:56.293Z,10.50
2018-11-01T23:08:24.637Z,10.50
2018-11-01T23:10:52.950Z,10.50
2018-11-01T23:13:21.242Z,10.50
2018-11-01T23:15:49.553Z,10.50
2018-11-01T23:18:17.793Z,10.50
2018-11-01T23:20:46.103Z,10.50
2018-11-01T23:23:14.452Z,10.60
2018-11-01T23:25:42.747Z,10.60
2018-11-01T23:28:11.065Z,10.70
2018-11-01T23:30:39.385Z,10.70
2018-11-01T23:33:08.090Z,10.70
2018-11-01T23:35:36.350Z,10.80
2018-11-01T23:38:10.227Z,10.80
2018-11-01T23:40:43.830Z,10.90
2018-11-01T23:43:17.624Z,10.90
2018-11-01T23:45:51.381Z,10.90
2018-11-01T23:48:18.936Z,10.90
2018-11-01T23:51:07.577Z,11.00
2018-11-01T23:53:42.112Z,11.00
2018-11-01T23:56:10.396Z,11.00
2018-11-01T23:58:38.663Z,11.00
